sensor_id;sensor_type;location;lat;lon;timestamp;pressure;altitude;pressure_sealevel;temperature;humidity
6833;BME280;3454;42.654;23.378;2023-06-01T00:00:15;64546.69;;;15.12;100.00
6833;BME280;3454;42.654;23.378;2023-06-01T00:02:41;64544.28;;;15.07;100.00
6833;BME280;3454;42.654;23.378;2023-06-01T00:05:07;64535.69;;;15.02;100.00
6833;BME280;3454;42.654;23.378;2023-06-01T00:07:32;64549.56;;;15.10;100.00
6833;BME280;3454;42.654;23.378;2023-06-01T00:09:59;64554.53;;;15.14;100.00
6833;BME280;3454;42.654;23.378;2023-06-01T00:12:26;64547.78;;;15.13;100.00
6833;BME280;3454;42.654;23.378;2023-06-01T00:14:52;64551.66;;;15.17;100.00
6833;BME280;3454;42.654;23.378;2023-06-01T00:17:17;64561.66;;;15.21;100.00
6833;BME280;3454;42.654;23.378;2023-06-01T00:19:42;64567.56;;;15.31;100.00
6833;BME280;3454;42.654;23.378;2023-06-01T00:22:10;64594.34;;;15.53;100.00
6833;BME280;3454;42.654;23.378;2023-06-01T00:24:36;64571.78;;;15.33;100.00
6833;BME280;3454;42.654;23.378;2023-06-01T00:27:01;64539.53;;;15.05;100.00
6833;BME280;3454;42.654;23.378;2023-06-01T00:29:27;64531.09;;;14.95;100.00
6833;BME280;3454;42.654;23.378;2023-06-01T00:31:53;64511.09;;;14.75;100.00
6833;BME280;3454;42.654;23.378;2023-06-01T00:34:18;64495.91;;;14.63;100.00
6833;BME280;3454;42.654;23.378;2023-06-01T00:36:44;64498.13;;;14.65;100.00
6833;BME280;3454;42.654;23.378;2023-06-01T00:39:09;64489.00;;;14.59;100.00
6833;BME280;3454;42.654;23.378;2023-06-01T00:41:34;64487.69;;;14.56;100.00
6833;BME280;3454;42.654;23.378;2023-06-01T00:44:00;64465.72;;;14.36;100.00
6833;BME280;3454;42.654;23.378;2023-06-01T00:46:27;64453.06;;;14.24;100.00
6833;BME280;3454;42.654;23.378;2023-06-01T00:48:53;64456.03;;;14.29;100.00
6833;BME280;3454;42.654;23.378;2023-06-01T00:51:19;64447.00;;;14.18;100.00
6833;BME280;3454;42.654;23.378;2023-06-01T00:53:45;64450.31;;;14.21;100.00
6833;BME280;3454;42.654;23.378;2023-06-01T00:56:10;64428.13;;;13.99;100.00
6833;BME280;3454;42.654;23.378;2023-06-01T00:58:41;64444.06;;;14.13;100.00
6833;BME280;3454;42.654;23.378;2023-06-01T01:01:07;64442.81;;;14.17;100.00
6833;BME280;3454;42.654;23.378;2023-06-01T01:03:33;64444.59;;;14.14;100.00
6833;BME280;3454;42.654;23.378;2023-06-01T01:06:20;64449.75;;;14.21;100.00
6833;BME280;3454;42.654;23.378;2023-06-01T01:09:02;64429.97;;;14.03;100.00
6833;BME280;3454;42.654;23.378;2023-06-01T01:11:33;64411.63;;;13.84;100.00
6833;BME280;3454;42.654;23.378;2023-06-01T01:14:20;64415.69;;;13.90;100.00
6833;BME280;3454;42.654;23.378;2023-06-01T01:16:57;64409.66;;;13.84;100.00
6833;BME280;3454;42.654;23.378;2023-06-01T01:19:54;64415.16;;;13.89;100.00
6833;BME280;3454;42.654;23.378;2023-06-01T01:25:52;64422.28;;;13.96;100.00
6833;BME280;3454;42.654;23.378;2023-06-01T01:28:47;64427.56;;;13.98;100.00
6833;BME280;3454;42.654;23.378;2023-06-01T01:31:17;64434.38;;;14.07;100.00
6833;BME280;3454;42.654;23.378;2023-06-01T01:33:46;64431.41;;;14.02;100.00
6833;BME280;3454;42.654;23.378;2023-06-01T01:36:11;64418.22;;;13.90;100.00
6833;BME280;3454;42.654;23.378;2023-06-01T01:38:37;64394.28;;;13.70;100.00
6833;BME280;3454;42.654;23.378;2023-06-01T01:41:03;64421.31;;;13.90;100.00
6833;BME280;3454;42.654;23.378;2023-06-01T01:43:30;64427.00;;;13.98;100.00
6833;BME280;3454;42.654;23.378;2023-06-01T01:51:20;64410.56;;;13.83;100.00
6833;BME280;3454;42.654;23.378;2023-06-01T01:53:48;64408.00;;;13.83;100.00
6833;BME280;3454;42.654;23.378;2023-06-01T01:56:18;64408.00;;;13.83;100.00
6833;BME280;3454;42.654;23.378;2023-06-01T01:58:45;64416.59;;;13.88;100.00
6833;BME280;3454;42.654;23.378;2023-06-01T02:01:12;64420.41;;;13.92;100.00
6833;BME280;3454;42.654;23.378;2023-06-01T02:03:38;64414.38;;;13.86;100.00
6833;BME280;3454;42.654;23.378;2023-06-01T02:06:03;64422.50;;;13.98;100.00
6833;BME280;3454;42.654;23.378;2023-06-01T02:08:28;64434.38;;;14.07;100.00
6833;BME280;3454;42.654;23.378;2023-06-01T02:10:54;64443.50;;;14.13;100.00
6833;BME280;3454;42.654;23.378;2023-06-01T02:13:19;64425.94;;;13.97;100.00
6833;BME280;3454;42.654;23.378;2023-06-01T02:15:45;64426.69;;;14.00;100.00
6833;BME280;3454;42.654;23.378;2023-06-01T02:18:10;64425.38;;;13.96;100.00
6833;BME280;3454;42.654;23.378;2023-06-01T02:20:36;64410.00;;;13.82;100.00
6833;BME280;3454;42.654;23.378;2023-06-01T02:23:02;64412.41;;;13.87;100.00
6833;BME280;3454;42.654;23.378;2023-06-01T02:25:27;64425.03;;;13.98;100.00
6833;BME280;3454;42.654;23.378;2023-06-01T02:27:52;64414.06;;;13.88;100.00
6833;BME280;3454;42.654;23.378;2023-06-01T02:30:18;64407.47;;;13.82;100.00
6833;BME280;3454;42.654;23.378;2023-06-01T02:32:43;64406.16;;;13.79;100.00
6833;BME280;3454;42.654;23.378;2023-06-01T02:35:13;64392.44;;;13.66;100.00
6833;BME280;3454;42.654;23.378;2023-06-01T02:37:39;64383.88;;;13.61;100.00
6833;BME280;3454;42.654;23.378;2023-06-01T02:40:05;64391.53;;;13.68;100.00
6833;BME280;3454;42.654;23.378;2023-06-01T02:42:31;64408.00;;;13.83;100.00
6833;BME280;3454;42.654;23.378;2023-06-01T02:44:57;64414.59;;;13.89;100.00
6833;BME280;3454;42.654;23.378;2023-06-01T02:47:22;64408.00;;;13.83;100.00
6833;BME280;3454;42.654;23.378;2023-06-01T02:49:48;64405.59;;;13.78;100.00
6833;BME280;3454;42.654;23.378;2023-06-01T02:52:13;64426.25;;;13.95;100.00
6833;BME280;3454;42.654;23.378;2023-06-01T02:54:38;64406.91;;;13.82;100.00
6833;BME280;3454;42.654;23.378;2023-06-01T02:57:04;64393.72;;;13.70;100.00
6833;BME280;3454;42.654;23.378;2023-06-01T02:59:30;64395.41;;;13.71;100.00
6833;BME280;3454;42.654;23.378;2023-06-01T03:02:03;64400.66;;;13.74;100.00
6833;BME280;3454;42.654;23.378;2023-06-01T03:04:28;64395.94;;;13.72;100.00
6833;BME280;3454;42.654;23.378;2023-06-01T03:06:58;64413.31;;;13.85;100.00
6833;BME280;3454;42.654;23.378;2023-06-01T03:09:24;64398.47;;;13.72;100.00
6833;BME280;3454;42.654;23.378;2023-06-01T03:11:50;64387.16;;;13.64;100.00
6833;BME280;3454;42.654;23.378;2023-06-01T03:14:15;64397.59;;;13.73;100.00
6833;BME280;3454;42.654;23.378;2023-06-01T03:16:40;64413.31;;;13.85;100.00
6833;BME280;3454;42.654;23.378;2023-06-01T03:19:06;64410.56;;;13.83;100.00
6833;BME280;3454;42.654;23.378;2023-06-01T03:21:31;64402.19;;;13.80;100.00
6833;BME280;3454;42.654;23.378;2023-06-01T03:23:57;64406.72;;;13.79;100.00
6833;BME280;3454;42.654;23.378;2023-06-01T03:26:22;64408.91;;;13.81;100.00
6833;BME280;3454;42.654;23.378;2023-06-01T03:28:49;64404.19;;;13.79;100.00
6833;BME280;3454;42.654;23.378;2023-06-01T03:31:15;64415.50;;;13.87;100.00
6833;BME280;3454;42.654;23.378;2023-06-01T03:33:40;64420.63;;;13.94;100.00
6833;BME280;3454;42.654;23.378;2023-06-01T03:36:06;64437.66;;;14.10;100.00
6833;BME280;3454;42.654;23.378;2023-06-01T03:38:33;64433.59;;;14.04;100.00
6833;BME280;3454;42.654;23.378;2023-06-01T03:40:59;64419.56;;;13.93;100.00
6833;BME280;3454;42.654;23.378;2023-06-01T03:43:25;64405.25;;;13.80;100.00
6833;BME280;3454;42.654;23.378;2023-06-01T03:45:51;64414.38;;;13.86;100.00
6833;BME280;3454;42.654;23.378;2023-06-01T03:48:16;64420.84;;;13.97;100.00
6833;BME280;3454;42.654;23.378;2023-06-01T03:50:42;64419.34;;;13.91;100.00
6833;BME280;3454;42.654;23.378;2023-06-01T03:53:07;64425.03;;;13.98;100.00
6833;BME280;3454;42.654;23.378;2023-06-01T03:55:32;64424.47;;;13.98;100.00
6833;BME280;3454;42.654;23.378;2023-06-01T03:58:00;64423.72;;;13.95;100.00
6833;BME280;3454;42.654;23.378;2023-06-01T04:00:27;64424.47;;;13.98;100.00
6833;BME280;3454;42.654;23.378;2023-06-01T04:02:55;64436.56;;;14.09;100.00
6833;BME280;3454;42.654;23.378;2023-06-01T04:05:22;64420.63;;;13.94;100.00
6833;BME280;3454;42.654;23.378;2023-06-01T04:07:51;64424.47;;;13.98;100.00
6833;BME280;3454;42.654;23.378;2023-06-01T04:10:16;64472.31;;;14.42;100.00
6833;BME280;3454;42.654;23.378;2023-06-01T04:12:46;64515.16;;;14.81;100.00
6833;BME280;3454;42.654;23.378;2023-06-01T04:15:13;64510.56;;;14.74;100.00
6833;BME280;3454;42.654;23.378;2023-06-01T04:17:39;64498.13;;;14.65;100.00
6833;BME280;3454;42.654;23.378;2023-06-01T04:20:06;64498.13;;;14.65;100.00
6833;BME280;3454;42.654;23.378;2023-06-01T04:22:35;64472.31;;;14.42;100.00
6833;BME280;3454;42.654;23.378;2023-06-01T04:25:01;64479.00;;;14.43;100.00
6833;BME280;3454;42.654;23.378;2023-06-01T04:27:27;64462.97;;;14.33;100.00
6833;BME280;3454;42.654;23.378;2023-06-01T04:29:52;64470.66;;;14.40;100.00
6833;BME280;3454;42.654;23.378;2023-06-01T04:32:18;64479.44;;;14.48;100.00
6833;BME280;3454;42.654;23.378;2023-06-01T04:34:50;64483.28;;;14.52;100.00
6833;BME280;3454;42.654;23.378;2023-06-01T04:37:16;64458.00;;;14.28;100.00
6833;BME280;3454;42.654;23.378;2023-06-01T04:39:45;64468.78;;;14.36;100.00
6833;BME280;3454;42.654;23.378;2023-06-01T04:42:14;64470.09;;;14.40;100.00
6833;BME280;3454;42.654;23.378;2023-06-01T04:44:45;64486.38;;;14.52;100.00
6833;BME280;3454;42.654;23.378;2023-06-01T04:47:15;64484.94;;;14.53;100.00
6833;BME280;3454;42.654;23.378;2023-06-01T04:49:42;64494.84;;;14.62;100.00
6833;BME280;3454;42.654;23.378;2023-06-01T04:52:09;64505.59;;;14.70;100.00
6833;BME280;3454;42.654;23.378;2023-06-01T04:54:37;64500.31;;;14.67;100.00
6833;BME280;3454;42.654;23.378;2023-06-01T04:57:03;64521.75;;;14.87;100.00
6833;BME280;3454;42.654;23.378;2023-06-01T04:59:31;64522.84;;;14.88;100.00
6833;BME280;3454;42.654;23.378;2023-06-01T05:01:57;64508.34;;;14.72;100.00
6833;BME280;3454;42.654;23.378;2023-06-01T05:04:22;64570.66;;;15.32;100.00
6833;BME280;3454;42.654;23.378;2023-06-01T05:06:48;64575.63;;;15.36;100.00
6833;BME280;3454;42.654;23.378;2023-06-01T05:09:13;64587.19;;;15.47;100.00
6833;BME280;3454;42.654;23.378;2023-06-01T05:11:39;64607.34;;;15.63;100.00
6833;BME280;3454;42.654;23.378;2023-06-01T05:14:05;64585.00;;;15.45;100.00
6833;BME280;3454;42.654;23.378;2023-06-01T05:16:30;64562.44;;;15.24;100.00
6833;BME280;3454;42.654;23.378;2023-06-01T05:18:57;64591.59;;;15.51;100.00
6833;BME280;3454;42.654;23.378;2023-06-01T05:21:22;64616.88;;;15.74;100.00
6833;BME280;3454;42.654;23.378;2023-06-01T05:23:47;64615.25;;;15.72;100.00
6833;BME280;3454;42.654;23.378;2023-06-01T05:26:13;64603.69;;;15.62;100.00
6833;BME280;3454;42.654;23.378;2023-06-01T05:28:38;64614.16;;;15.71;100.00
6833;BME280;3454;42.654;23.378;2023-06-01T05:31:04;64627.13;;;15.81;100.00
6833;BME280;3454;42.654;23.378;2023-06-01T05:33:30;64621.28;;;15.78;100.00
6833;BME280;3454;42.654;23.378;2023-06-01T05:35:56;64637.81;;;15.93;100.00
6833;BME280;3454;42.654;23.378;2023-06-01T05:38:21;64621.28;;;15.78;100.00
6833;BME280;3454;42.654;23.378;2023-06-01T05:40:47;64626.25;;;15.82;100.00
6833;BME280;3454;42.654;23.378;2023-06-01T05:43:14;64629.34;;;15.83;100.00
6833;BME280;3454;42.654;23.378;2023-06-01T05:45:39;64658.69;;;16.12;100.00
6833;BME280;3454;42.654;23.378;2023-06-01T05:48:05;64656.50;;;16.10;100.00
6833;BME280;3454;42.654;23.378;2023-06-01T05:50:30;64650.66;;;16.07;100.00
6833;BME280;3454;42.654;23.378;2023-06-01T05:52:55;64640.00;;;15.95;100.00
6833;BME280;3454;42.654;23.378;2023-06-01T05:55:21;64637.81;;;15.93;100.00
6833;BME280;3454;42.654;23.378;2023-06-01T05:57:46;64644.75;;;15.97;100.00
6833;BME280;3454;42.654;23.378;2023-06-01T06:00:13;64658.16;;;16.12;100.00
6833;BME280;3454;42.654;23.378;2023-06-01T06:02:43;64671.56;;;16.26;100.00
6833;BME280;3454;42.654;23.378;2023-06-01T06:05:09;64644.97;;;16.00;100.00
6833;BME280;3454;42.654;23.378;2023-06-01T06:07:35;64664.22;;;16.17;100.00
6833;BME280;3454;42.654;23.378;2023-06-01T06:10:01;64681.81;;;16.33;100.00
6833;BME280;3454;42.654;23.378;2023-06-01T06:12:27;64671.38;;;16.24;100.00
6833;BME280;3454;42.654;23.378;2023-06-01T06:14:52;64682.38;;;16.34;100.00
6833;BME280;3454;42.654;23.378;2023-06-01T06:17:18;64711.03;;;16.60;100.00
6833;BME280;3454;42.654;23.378;2023-06-01T06:19:44;64704.94;;;16.54;100.00
6833;BME280;3454;42.654;23.378;2023-06-01T06:22:10;64715.44;;;16.64;100.00
6833;BME280;3454;42.654;23.378;2023-06-01T06:24:35;64701.31;;;16.53;100.00
6833;BME280;3454;42.654;23.378;2023-06-01T06:27:01;64720.94;;;16.69;100.00
6833;BME280;3454;42.654;23.378;2023-06-01T06:29:27;64729.94;;;16.79;100.00
6833;BME280;3454;42.654;23.378;2023-06-01T06:31:52;64740.56;;;16.85;100.00
6833;BME280;3454;42.654;23.378;2023-06-01T06:34:18;64768.28;;;17.12;100.00
6833;BME280;3454;42.654;23.378;2023-06-01T06:36:43;64750.66;;;16.96;100.00
6833;BME280;3454;42.654;23.378;2023-06-01T06:39:09;64755.63;;;17.01;100.00
6833;BME280;3454;42.654;23.378;2023-06-01T06:41:34;64758.72;;;17.01;100.00
6833;BME280;3454;42.654;23.378;2023-06-01T06:44:00;64742.59;;;16.91;100.00
6833;BME280;3454;42.654;23.378;2023-06-01T06:46:25;64764.97;;;17.09;100.00
6833;BME280;3454;42.654;23.378;2023-06-01T06:48:51;64767.41;;;17.14;100.00
6833;BME280;3454;42.654;23.378;2023-06-01T06:51:16;64788.34;;;17.33;100.00
6833;BME280;3454;42.654;23.378;2023-06-01T06:53:41;64788.69;;;17.31;100.00
6833;BME280;3454;42.654;23.378;2023-06-01T06:56:07;64790.88;;;17.33;100.00
6833;BME280;3454;42.654;23.378;2023-06-01T06:58:32;64797.69;;;17.41;100.00
6833;BME280;3454;42.654;23.378;2023-06-01T07:00:57;64798.25;;;17.42;100.00
6833;BME280;3454;42.654;23.378;2023-06-01T07:03:23;64799.88;;;17.43;100.00
6833;BME280;3454;42.654;23.378;2023-06-01T07:05:49;64831.31;;;17.72;100.00
6833;BME280;3454;42.654;23.378;2023-06-01T07:08:15;64858.34;;;17.97;100.00
6833;BME280;3454;42.654;23.378;2023-06-01T07:10:40;64856.13;;;17.95;100.00
6833;BME280;3454;42.654;23.378;2023-06-01T07:13:05;64837.19;;;17.75;100.00
6833;BME280;3454;42.654;23.378;2023-06-01T07:15:38;64845.66;;;17.85;100.00
6833;BME280;3454;42.654;23.378;2023-06-01T07:18:03;64869.16;;;18.04;100.00
6833;BME280;3454;42.654;23.378;2023-06-01T07:20:28;64853.94;;;17.93;100.00
6833;BME280;3454;42.654;23.378;2023-06-01T07:22:54;64873.03;;;18.08;100.00
6833;BME280;3454;42.654;23.378;2023-06-01T07:25:19;64871.56;;;18.09;100.00
6833;BME280;3454;42.654;23.378;2023-06-01T07:27:45;64900.78;;;18.35;100.00
6833;BME280;3454;42.654;23.378;2023-06-01T07:30:13;64931.13;;;18.63;100.00
6833;BME280;3454;42.654;23.378;2023-06-01T07:32:40;64939.56;;;18.66;100.00
6833;BME280;3454;42.654;23.378;2023-06-01T07:35:06;64950.44;;;18.81;100.00
6833;BME280;3454;42.654;23.378;2023-06-01T07:37:33;64947.16;;;18.78;100.00
6833;BME280;3454;42.654;23.378;2023-06-01T07:39:58;64979.81;;;19.03;100.00
6833;BME280;3454;42.654;23.378;2023-06-01T07:42:42;64978.59;;;19.06;100.00
6833;BME280;3454;42.654;23.378;2023-06-01T07:45:08;65006.53;;;19.29;100.00
6833;BME280;3454;42.654;23.378;2023-06-01T07:47:34;65000.66;;;19.26;100.00
6833;BME280;3454;42.654;23.378;2023-06-01T07:50:00;65004.31;;;19.27;100.00
6833;BME280;3454;42.654;23.378;2023-06-01T07:52:25;65017.78;;;19.42;100.00
6833;BME280;3454;42.654;23.378;2023-06-01T07:54:51;64980.59;;;19.06;100.00
6833;BME280;3454;42.654;23.378;2023-06-01T07:57:16;65000.66;;;19.26;100.00
6833;BME280;3454;42.654;23.378;2023-06-01T07:59:42;64997.13;;;19.21;100.00
6833;BME280;3454;42.654;23.378;2023-06-01T08:02:08;64976.94;;;19.05;100.00
6833;BME280;3454;42.654;23.378;2023-06-01T08:04:35;64991.06;;;19.15;100.00
6833;BME280;3454;42.654;23.378;2023-06-01T08:07:04;65006.72;;;19.32;100.00
6833;BME280;3454;42.654;23.378;2023-06-01T08:09:32;65018.69;;;19.41;100.00
6833;BME280;3454;42.654;23.378;2023-06-01T08:11:57;65009.28;;;19.32;100.00
6833;BME280;3454;42.654;23.378;2023-06-01T08:14:24;65021.13;;;19.45;100.00
6833;BME280;3454;42.654;23.378;2023-06-01T08:16:49;65032.69;;;19.56;100.00
6833;BME280;3454;42.654;23.378;2023-06-01T08:19:16;65053.13;;;19.74;100.00
6833;BME280;3454;42.654;23.378;2023-06-01T08:21:42;65043.19;;;19.65;100.00
6833;BME280;3454;42.654;23.378;2023-06-01T08:24:08;65068.59;;;19.88;100.00
6833;BME280;3454;42.654;23.378;2023-06-01T08:26:34;65102.06;;;20.17;100.00
6833;BME280;3454;42.654;23.378;2023-06-01T08:29:02;65134.34;;;20.48;100.00
6833;BME280;3454;42.654;23.378;2023-06-01T08:31:28;65139.88;;;20.53;99.95
6833;BME280;3454;42.654;23.378;2023-06-01T08:33:54;65128.25;;;20.43;100.00
6833;BME280;3454;42.654;23.378;2023-06-01T08:36:21;65113.91;;;20.30;100.00
6833;BME280;3454;42.654;23.378;2023-06-01T08:38:48;65123.84;;;20.39;98.03
6833;BME280;3454;42.654;23.378;2023-06-01T08:41:22;65123.28;;;20.38;97.80
6833;BME280;3454;42.654;23.378;2023-06-01T08:43:58;65161.97;;;20.73;97.70
6833;BME280;3454;42.654;23.378;2023-06-01T08:46:26;65185.00;;;20.92;94.42
6833;BME280;3454;42.654;23.378;2023-06-01T08:48:53;65163.63;;;20.75;96.64
6833;BME280;3454;42.654;23.378;2023-06-01T08:51:20;65161.63;;;20.75;97.50
6833;BME280;3454;42.654;23.378;2023-06-01T08:53:49;65186.84;;;20.96;96.42
6833;BME280;3454;42.654;23.378;2023-06-01T08:56:15;65226.69;;;21.32;97.74
6833;BME280;3454;42.654;23.378;2023-06-01T08:58:40;65255.63;;;21.61;96.32
6833;BME280;3454;42.654;23.378;2023-06-01T09:01:07;65242.38;;;21.49;94.85
6833;BME280;3454;42.654;23.378;2023-06-01T09:03:32;65267.59;;;21.69;91.03
6833;BME280;3454;42.654;23.378;2023-06-01T09:05:58;65239.59;;;21.46;92.33
6833;BME280;3454;42.654;23.378;2023-06-01T09:08:24;65252.88;;;21.58;93.66
6833;BME280;3454;42.654;23.378;2023-06-01T09:10:49;65232.75;;;21.38;92.22
6833;BME280;3454;42.654;23.378;2023-06-01T09:13:31;65248.78;;;21.52;90.36
6833;BME280;3454;42.654;23.378;2023-06-01T09:15:56;65260.06;;;21.65;94.56
6833;BME280;3454;42.654;23.378;2023-06-01T09:18:22;65318.88;;;22.14;89.15
6833;BME280;3454;42.654;23.378;2023-06-01T09:20:48;65344.53;;;22.39;88.45
6833;BME280;3454;42.654;23.378;2023-06-01T09:23:23;65386.44;;;22.75;91.44
6833;BME280;3454;42.654;23.378;2023-06-01T09:26:06;65390.50;;;22.81;86.21
6833;BME280;3454;42.654;23.378;2023-06-01T09:28:59;65373.34;;;22.66;86.49
6833;BME280;3454;42.654;23.378;2023-06-01T09:31:45;65436.47;;;23.23;83.53
6833;BME280;3454;42.654;23.378;2023-06-01T09:34:13;65422.06;;;23.10;83.16
6833;BME280;3454;42.654;23.378;2023-06-01T09:36:44;65438.88;;;23.27;81.07
6833;BME280;3454;42.654;23.378;2023-06-01T09:39:14;65461.41;;;23.46;82.67
6833;BME280;3454;42.654;23.378;2023-06-01T09:44:37;65482.13;;;23.67;79.08
6833;BME280;3454;42.654;23.378;2023-06-01T09:47:04;65463.63;;;23.48;80.97
6833;BME280;3454;42.654;23.378;2023-06-01T09:49:33;65509.28;;;23.91;77.08
6833;BME280;3454;42.654;23.378;2023-06-01T09:57:01;65508.53;;;23.88;71.99
6833;BME280;3454;42.654;23.378;2023-06-01T09:59:28;65566.41;;;24.43;72.69
6833;BME280;3454;42.654;23.378;2023-06-01T10:01:57;65590.06;;;24.62;75.53
6833;BME280;3454;42.654;23.378;2023-06-01T10:04:25;65625.22;;;24.96;65.08
6833;BME280;3454;42.654;23.378;2023-06-01T10:06:53;65661.81;;;25.30;72.04
6833;BME280;3454;42.654;23.378;2023-06-01T10:09:20;65653.50;;;25.22;67.46
6833;BME280;3454;42.654;23.378;2023-06-01T10:11:47;65639.63;;;25.10;68.85
6833;BME280;3454;42.654;23.378;2023-06-01T10:14:14;65546.78;;;24.23;70.18
6833;BME280;3454;42.654;23.378;2023-06-01T10:16:41;65550.66;;;24.27;71.12
6833;BME280;3454;42.654;23.378;2023-06-01T10:19:08;65454.78;;;23.40;67.02
6833;BME280;3454;42.654;23.378;2023-06-01T10:21:34;65442.56;;;23.28;67.25
6833;BME280;3454;42.654;23.378;2023-06-01T10:24:01;65393.47;;;22.86;66.36
6833;BME280;3454;42.654;23.378;2023-06-01T10:26:28;65372.44;;;22.67;69.71
6833;BME280;3454;42.654;23.378;2023-06-01T10:28:56;65367.78;;;22.61;67.87
6833;BME280;3454;42.654;23.378;2023-06-01T10:31:39;65355.06;;;22.49;67.50
6833;BME280;3454;42.654;23.378;2023-06-01T10:34:07;65324.06;;;22.21;68.01
6833;BME280;3454;42.654;23.378;2023-06-01T10:39:30;65320.38;;;22.20;72.25
6833;BME280;3454;42.654;23.378;2023-06-01T10:52:36;65363.00;;;22.59;60.85
6833;BME280;3454;42.654;23.378;2023-06-01T10:57:38;65309.69;;;22.08;62.84
6833;BME280;3454;42.654;23.378;2023-06-01T11:05:44;65216.72;;;21.23;65.51
6833;BME280;3454;42.654;23.378;2023-06-01T11:13:33;65177.44;;;20.87;67.09
6833;BME280;3454;42.654;23.378;2023-06-01T11:21:21;65152.22;;;20.67;67.08
6833;BME280;3454;42.654;23.378;2023-06-01T11:23:47;65123.63;;;20.36;69.16
6833;BME280;3454;42.654;23.378;2023-06-01T11:26:18;65123.63;;;20.36;68.69
6833;BME280;3454;42.654;23.378;2023-06-01T11:28:45;65101.72;;;20.19;72.08
6833;BME280;3454;42.654;23.378;2023-06-01T11:31:12;65082.41;;;20.01;74.72
6833;BME280;3454;42.654;23.378;2023-06-01T11:33:39;65063.63;;;19.84;78.85
6833;BME280;3454;42.654;23.378;2023-06-01T11:36:07;65024.56;;;19.44;81.12
6833;BME280;3454;42.654;23.378;2023-06-01T11:38:38;64991.84;;;19.18;85.79
6833;BME280;3454;42.654;23.378;2023-06-01T11:41:04;64947.69;;;18.78;88.36
6833;BME280;3454;42.654;23.378;2023-06-01T11:43:33;64917.69;;;18.49;93.94
6833;BME280;3454;42.654;23.378;2023-06-01T11:46:03;64878.41;;;18.17;100.00
6833;BME280;3454;42.654;23.378;2023-06-01T11:48:28;64871.34;;;18.06;100.00
6833;BME280;3454;42.654;23.378;2023-06-01T11:50:54;64836.84;;;17.77;100.00
6833;BME280;3454;42.654;23.378;2023-06-01T11:53:20;64822.28;;;17.61;100.00
6833;BME280;3454;42.654;23.378;2023-06-01T11:55:55;64804.28;;;17.47;100.00
6833;BME280;3454;42.654;23.378;2023-06-01T11:58:27;64772.91;;;17.19;100.00
6833;BME280;3454;42.654;23.378;2023-06-01T12:00:53;64769.72;;;17.11;100.00
6833;BME280;3454;42.654;23.378;2023-06-01T12:03:20;64779.31;;;17.22;100.00
6833;BME280;3454;42.654;23.378;2023-06-01T12:05:46;64778.41;;;17.24;100.00
6833;BME280;3454;42.654;23.378;2023-06-01T12:08:18;64773.78;;;17.17;100.00
6833;BME280;3454;42.654;23.378;2023-06-01T12:10:48;64739.09;;;16.86;100.00
6833;BME280;3454;42.654;23.378;2023-06-01T12:13:16;64730.84;;;16.78;100.00
6833;BME280;3454;42.654;23.378;2023-06-01T12:15:42;64731.41;;;16.78;100.00
6833;BME280;3454;42.654;23.378;2023-06-01T12:18:08;64721.13;;;16.71;100.00
6833;BME280;3454;42.654;23.378;2023-06-01T12:20:41;64727.00;;;16.74;100.00
6833;BME280;3454;42.654;23.378;2023-06-01T12:25:37;64717.81;;;16.68;100.00
6833;BME280;3454;42.654;23.378;2023-06-01T12:28:07;64705.50;;;16.55;100.00
6833;BME280;3454;42.654;23.378;2023-06-01T12:30:34;64683.91;;;16.40;100.00
6833;BME280;3454;42.654;23.378;2023-06-01T12:32:59;64693.03;;;16.46;100.00
6833;BME280;3454;42.654;23.378;2023-06-01T12:35:25;64695.78;;;16.48;100.00
6833;BME280;3454;42.654;23.378;2023-06-01T12:40:29;64713.22;;;16.62;100.00
6833;BME280;3454;42.654;23.378;2023-06-01T12:42:55;64727.00;;;16.74;100.00
6833;BME280;3454;42.654;23.378;2023-06-01T12:45:21;64731.06;;;16.81;100.00
6833;BME280;3454;42.654;23.378;2023-06-01T12:47:46;64760.03;;;17.05;100.00
6833;BME280;3454;42.654;23.378;2023-06-01T12:50:12;64762.78;;;17.07;100.00
6833;BME280;3454;42.654;23.378;2023-06-01T12:52:40;64745.72;;;16.92;100.00
6833;BME280;3454;42.654;23.378;2023-06-01T12:55:08;64752.88;;;16.98;100.00
6833;BME280;3454;42.654;23.378;2023-06-01T12:57:35;64759.13;;;17.06;100.00
6833;BME280;3454;42.654;23.378;2023-06-01T13:00:02;64762.59;;;17.05;100.00
6833;BME280;3454;42.654;23.378;2023-06-01T13:02:29;64768.84;;;17.13;100.00
6833;BME280;3454;42.654;23.378;2023-06-01T13:04:55;64793.28;;;17.37;100.00
6833;BME280;3454;42.654;23.378;2023-06-01T13:07:22;64826.38;;;17.68;100.00
6833;BME280;3454;42.654;23.378;2023-06-01T13:09:49;64852.97;;;17.87;100.00
6833;BME280;3454;42.654;23.378;2023-06-01T13:12:14;64863.31;;;18.01;100.00
6833;BME280;3454;42.654;23.378;2023-06-01T13:14:40;64871.56;;;18.09;100.00
6833;BME280;3454;42.654;23.378;2023-06-01T13:17:05;64892.88;;;18.26;100.00
6833;BME280;3454;42.654;23.378;2023-06-01T13:19:31;64907.75;;;18.39;100.00
6833;BME280;3454;42.654;23.378;2023-06-01T13:21:57;64911.97;;;18.41;100.00
6833;BME280;3454;42.654;23.378;2023-06-01T13:24:23;64915.50;;;18.47;100.00
6833;BME280;3454;42.654;23.378;2023-06-01T13:26:49;64913.69;;;18.50;100.00
6833;BME280;3454;42.654;23.378;2023-06-01T13:29:14;64927.84;;;18.60;100.00
6833;BME280;3454;42.654;23.378;2023-06-01T13:31:40;64929.50;;;18.62;100.00
6833;BME280;3454;42.654;23.378;2023-06-01T13:34:05;64966.25;;;18.93;100.00
6833;BME280;3454;42.654;23.378;2023-06-01T13:36:31;65018.00;;;19.45;100.00
6833;BME280;3454;42.654;23.378;2023-06-01T13:38:58;65057.53;;;19.78;100.00
6833;BME280;3454;42.654;23.378;2023-06-01T13:41:23;65106.72;;;20.23;100.00
6833;BME280;3454;42.654;23.378;2023-06-01T13:43:56;65131.25;;;20.48;100.00
6833;BME280;3454;42.654;23.378;2023-06-01T13:46:21;65138.22;;;20.52;98.13
6833;BME280;3454;42.654;23.378;2023-06-01T13:48:47;65118.34;;;20.34;96.94
6833;BME280;3454;42.654;23.378;2023-06-01T13:51:12;65119.78;;;20.33;100.00
6833;BME280;3454;42.654;23.378;2023-06-01T13:53:38;65081.84;;;20.00;99.41
6833;BME280;3454;42.654;23.378;2023-06-01T13:56:03;65110.59;;;20.27;100.00